sensor_id;sensor_type;location;lat;lon;timestamp;pressure;altitude;pressure_sealevel;temperature;humidity
77013;BME280;67260;53.130;17.982;2023-05-07T00:00:47;101937.16;;;6.07;82.61
77013;BME280;67260;53.130;17.982;2023-05-07T00:03:20;101933.48;;;5.98;82.38
77013;BME280;67260;53.130;17.982;2023-05-07T00:05:49;101935.10;;;5.90;82.56
77013;BME280;67260;53.130;17.982;2023-05-07T00:08:16;101934.66;;;5.83;82.79
77013;BME280;67260;53.130;17.982;2023-05-07T00:10:44;101931.47;;;5.78;82.72
77013;BME280;67260;53.130;17.982;2023-05-07T00:13:12;101930.91;;;5.71;82.61
77013;BME280;67260;53.130;17.982;2023-05-07T00:15:39;101931.21;;;5.64;82.79
77013;BME280;67260;53.130;17.982;2023-05-07T00:18:06;101931.63;;;5.58;82.86
77013;BME280;67260;53.130;17.982;2023-05-07T00:20:33;101932.23;;;5.51;82.89
77013;BME280;67260;53.130;17.982;2023-05-07T00:23:00;101931.45;;;5.45;82.86
77013;BME280;67260;53.130;17.982;2023-05-07T00:25:27;101935.31;;;5.39;82.78
77013;BME280;67260;53.130;17.982;2023-05-07T00:27:54;101937.25;;;5.33;83.06
77013;BME280;67260;53.130;17.982;2023-05-07T00:30:21;101937.50;;;5.29;83.13
77013;BME280;67260;53.130;17.982;2023-05-07T00:32:48;101939.35;;;5.22;83.51
77013;BME280;67260;53.130;17.982;2023-05-07T00:35:15;101943.52;;;5.19;83.53
77013;BME280;67260;53.130;17.982;2023-05-07T00:37:42;101946.58;;;5.16;83.47
77013;BME280;67260;53.130;17.982;2023-05-07T00:40:09;101945.45;;;5.14;83.47
77013;BME280;67260;53.130;17.982;2023-05-07T00:42:39;101952.65;;;5.12;83.91
77013;BME280;67260;53.130;17.982;2023-05-07T00:45:10;101953.65;;;5.08;83.43
77013;BME280;67260;53.130;17.982;2023-05-07T00:47:37;101952.55;;;5.03;83.60
77013;BME280;67260;53.130;17.982;2023-05-07T00:50:05;101955.44;;;4.99;83.34
77013;BME280;67260;53.130;17.982;2023-05-07T00:52:32;101958.63;;;4.92;83.49
77013;BME280;67260;53.130;17.982;2023-05-07T00:55:04;101962.14;;;4.86;83.38
77013;BME280;67260;53.130;17.982;2023-05-07T00:57:36;101960.70;;;4.81;83.50
77013;BME280;67260;53.130;17.982;2023-05-07T01:00:05;101963.09;;;4.76;83.53
77013;BME280;67260;53.130;17.982;2023-05-07T01:02:31;101964.83;;;4.71;83.68
77013;BME280;67260;53.130;17.982;2023-05-07T01:04:58;101961.26;;;4.66;83.68
77013;BME280;67260;53.130;17.982;2023-05-07T01:07:27;101956.93;;;4.61;83.66
77013;BME280;67260;53.130;17.982;2023-05-07T01:09:54;101957.73;;;4.56;83.82
77013;BME280;67260;53.130;17.982;2023-05-07T01:12:21;101958.80;;;4.52;83.89
77013;BME280;67260;53.130;17.982;2023-05-07T01:14:48;101961.65;;;4.49;84.19
77013;BME280;67260;53.130;17.982;2023-05-07T01:17:17;101962.73;;;4.47;83.92
77013;BME280;67260;53.130;17.982;2023-05-07T01:19:45;101963.20;;;4.46;84.13
77013;BME280;67260;53.130;17.982;2023-05-07T01:22:14;101962.75;;;4.45;84.33
77013;BME280;67260;53.130;17.982;2023-05-07T01:24:47;101965.02;;;4.43;83.95
77013;BME280;67260;53.130;17.982;2023-05-07T01:27:14;101964.51;;;4.37;84.03
77013;BME280;67260;53.130;17.982;2023-05-07T01:29:41;101970.86;;;4.32;84.17
77013;BME280;67260;53.130;17.982;2023-05-07T01:32:08;101970.09;;;4.29;84.08
77013;BME280;67260;53.130;17.982;2023-05-07T01:34:36;101969.63;;;4.24;84.17
77013;BME280;67260;53.130;17.982;2023-05-07T01:37:03;101970.48;;;4.21;84.20
77013;BME280;67260;53.130;17.982;2023-05-07T01:39:30;101975.27;;;4.16;84.13
77013;BME280;67260;53.130;17.982;2023-05-07T01:41:58;101975.21;;;4.09;83.98
77013;BME280;67260;53.130;17.982;2023-05-07T01:44:26;101979.77;;;4.02;83.99
77013;BME280;67260;53.130;17.982;2023-05-07T01:46:56;101986.77;;;3.93;84.10
77013;BME280;67260;53.130;17.982;2023-05-07T01:49:23;101985.72;;;3.85;84.12
77013;BME280;67260;53.130;17.982;2023-05-07T01:51:51;101984.80;;;3.78;84.27
77013;BME280;67260;53.130;17.982;2023-05-07T01:54:25;101983.87;;;3.70;84.38
77013;BME280;67260;53.130;17.982;2023-05-07T01:56:56;101983.21;;;3.66;84.22
77013;BME280;67260;53.130;17.982;2023-05-07T01:59:23;101982.17;;;3.63;84.93
77013;BME280;67260;53.130;17.982;2023-05-07T02:01:50;101987.38;;;3.64;85.18
77013;BME280;67260;53.130;17.982;2023-05-07T02:04:17;101986.19;;;3.66;84.98
77013;BME280;67260;53.130;17.982;2023-05-07T02:06:44;101987.70;;;3.68;85.22
77013;BME280;67260;53.130;17.982;2023-05-07T02:09:13;101988.45;;;3.68;84.89
77013;BME280;67260;53.130;17.982;2023-05-07T02:11:43;101987.66;;;3.65;84.56
77013;BME280;67260;53.130;17.982;2023-05-07T02:14:10;101991.09;;;3.59;84.29
77013;BME280;67260;53.130;17.982;2023-05-07T02:16:37;101987.55;;;3.54;84.42
77013;BME280;67260;53.130;17.982;2023-05-07T02:19:03;101989.30;;;3.47;84.38
77013;BME280;67260;53.130;17.982;2023-05-07T02:21:30;101992.02;;;3.42;84.32
77013;BME280;67260;53.130;17.982;2023-05-07T02:23:57;101992.04;;;3.38;84.49
77013;BME280;67260;53.130;17.982;2023-05-07T02:26:24;102000.19;;;3.35;84.66
77013;BME280;67260;53.130;17.982;2023-05-07T02:28:51;102004.70;;;3.33;84.76
77013;BME280;67260;53.130;17.982;2023-05-07T02:31:18;102003.55;;;3.32;84.78
77013;BME280;67260;53.130;17.982;2023-05-07T02:33:45;102006.04;;;3.32;84.88
77013;BME280;67260;53.130;17.982;2023-05-07T02:36:13;102005.60;;;3.28;84.50
77013;BME280;67260;53.130;17.982;2023-05-07T02:38:45;102006.11;;;3.22;84.60
77013;BME280;67260;53.130;17.982;2023-05-07T02:41:11;102009.20;;;3.15;84.25
77013;BME280;67260;53.130;17.982;2023-05-07T02:43:38;102011.27;;;3.07;84.48
77013;BME280;67260;53.130;17.982;2023-05-07T02:46:05;102008.08;;;3.01;84.46
77013;BME280;67260;53.130;17.982;2023-05-07T02:48:34;102007.84;;;2.95;84.38
77013;BME280;67260;53.130;17.982;2023-05-07T02:51:02;102003.14;;;2.89;84.53
77013;BME280;67260;53.130;17.982;2023-05-07T02:53:30;102006.73;;;2.85;84.58
77013;BME280;67260;53.130;17.982;2023-05-07T02:55:58;102009.01;;;2.84;84.92
77013;BME280;67260;53.130;17.982;2023-05-07T02:58:25;102008.52;;;2.83;84.89
77013;BME280;67260;53.130;17.982;2023-05-07T03:00:52;102008.24;;;2.82;84.78
77013;BME280;67260;53.130;17.982;2023-05-07T03:03:32;102008.90;;;2.85;85.10
77013;BME280;67260;53.130;17.982;2023-05-07T03:05:59;102009.44;;;2.86;85.15
77013;BME280;67260;53.130;17.982;2023-05-07T03:08:26;102011.86;;;2.85;85.02
77013;BME280;67260;53.130;17.982;2023-05-07T03:10:53;102017.60;;;2.87;85.43
77013;BME280;67260;53.130;17.982;2023-05-07T03:13:19;102018.23;;;2.92;85.50
77013;BME280;67260;53.130;17.982;2023-05-07T03:15:47;102019.55;;;3.00;85.42
77013;BME280;67260;53.130;17.982;2023-05-07T03:18:14;102025.93;;;3.05;85.23
77013;BME280;67260;53.130;17.982;2023-05-07T03:20:41;102027.69;;;3.12;85.24
77013;BME280;67260;53.130;17.982;2023-05-07T03:23:08;102028.42;;;3.13;84.42
77013;BME280;67260;53.130;17.982;2023-05-07T03:25:34;102032.45;;;3.11;84.56
77013;BME280;67260;53.130;17.982;2023-05-07T03:28:01;102033.08;;;3.08;84.35
77013;BME280;67260;53.130;17.982;2023-05-07T03:30:37;102034.55;;;3.11;84.58
77013;BME280;67260;53.130;17.982;2023-05-07T03:33:03;102035.77;;;3.11;84.57
77013;BME280;67260;53.130;17.982;2023-05-07T03:35:31;102038.70;;;3.12;84.49
77013;BME280;67260;53.130;17.982;2023-05-07T03:37:57;102042.57;;;3.12;84.08
77013;BME280;67260;53.130;17.982;2023-05-07T03:40:26;102045.95;;;3.13;84.06
77013;BME280;67260;53.130;17.982;2023-05-07T03:42:53;102052.27;;;3.17;84.19
77013;BME280;67260;53.130;17.982;2023-05-07T03:45:23;102049.40;;;3.30;84.52
77013;BME280;67260;53.130;17.982;2023-05-07T03:47:58;102050.82;;;3.80;83.88
77013;BME280;67260;53.130;17.982;2023-05-07T03:50:25;102050.96;;;4.49;82.65
77013;BME280;67260;53.130;17.982;2023-05-07T03:52:52;102052.73;;;5.16;81.26
77013;BME280;67260;53.130;17.982;2023-05-07T03:55:21;102058.77;;;5.81;79.66
77013;BME280;67260;53.130;17.982;2023-05-07T03:57:56;102061.06;;;5.97;78.16
77013;BME280;67260;53.130;17.982;2023-05-07T04:00:25;102066.05;;;5.54;78.83
77013;BME280;67260;53.130;17.982;2023-05-07T04:02:51;102064.52;;;5.27;78.88
77013;BME280;67260;53.130;17.982;2023-05-07T04:05:25;102066.05;;;5.00;79.49
77013;BME280;67260;53.130;17.982;2023-05-07T04:07:55;102072.16;;;4.93;80.12
77013;BME280;67260;53.130;17.982;2023-05-07T04:10:27;102076.45;;;4.90;80.02
77013;BME280;67260;53.130;17.982;2023-05-07T04:12:56;102079.41;;;4.90;80.40
77013;BME280;67260;53.130;17.982;2023-05-07T04:15:24;102082.94;;;4.90;80.03
77013;BME280;67260;53.130;17.982;2023-05-07T04:17:51;102084.21;;;4.91;80.19
77013;BME280;67260;53.130;17.982;2023-05-07T04:20:19;102091.04;;;4.98;80.07
77013;BME280;67260;53.130;17.982;2023-05-07T04:22:49;102084.57;;;5.07;80.18
77013;BME280;67260;53.130;17.982;2023-05-07T04:25:16;102090.61;;;5.20;80.03
77013;BME280;67260;53.130;17.982;2023-05-07T04:27:46;102094.75;;;5.30;79.91
77013;BME280;67260;53.130;17.982;2023-05-07T04:30:14;102095.15;;;6.00;78.85
77013;BME280;67260;53.130;17.982;2023-05-07T04:32:42;102095.87;;;7.36;76.44
77013;BME280;67260;53.130;17.982;2023-05-07T04:35:09;102093.52;;;9.03;73.71
77013;BME280;67260;53.130;17.982;2023-05-07T04:37:36;102097.21;;;10.52;70.53
77013;BME280;67260;53.130;17.982;2023-05-07T04:40:03;102095.80;;;10.91;69.34
77013;BME280;67260;53.130;17.982;2023-05-07T04:42:31;102102.27;;;10.00;71.11
77013;BME280;67260;53.130;17.982;2023-05-07T04:44:59;102104.96;;;9.57;71.77
77013;BME280;67260;53.130;17.982;2023-05-07T04:47:27;102107.40;;;10.72;69.56
77013;BME280;67260;53.130;17.982;2023-05-07T04:49:53;102107.30;;;12.42;65.68
77013;BME280;67260;53.130;17.982;2023-05-07T04:52:20;102108.60;;;13.62;63.48
77013;BME280;67260;53.130;17.982;2023-05-07T04:54:47;102112.27;;;14.80;61.73
77013;BME280;67260;53.130;17.982;2023-05-07T04:57:15;102109.17;;;15.81;59.88
77013;BME280;67260;53.130;17.982;2023-05-07T04:59:44;102111.60;;;16.61;57.89
77013;BME280;67260;53.130;17.982;2023-05-07T05:02:10;102110.51;;;17.28;56.53
77013;BME280;67260;53.130;17.982;2023-05-07T05:04:42;102114.10;;;17.99;55.25
77013;BME280;67260;53.130;17.982;2023-05-07T05:07:18;102116.25;;;19.20;54.03
77013;BME280;67260;53.130;17.982;2023-05-07T05:09:52;102117.65;;;20.71;51.19
77013;BME280;67260;53.130;17.982;2023-05-07T05:12:20;102119.55;;;21.12;49.55
77013;BME280;67260;53.130;17.982;2023-05-07T05:14:47;102122.86;;;21.32;48.94
77013;BME280;67260;53.130;17.982;2023-05-07T05:17:14;102127.27;;;21.48;47.91
77013;BME280;67260;53.130;17.982;2023-05-07T05:19:43;102123.50;;;21.67;46.11
77013;BME280;67260;53.130;17.982;2023-05-07T05:22:10;102124.61;;;21.90;45.63
77013;BME280;67260;53.130;17.982;2023-05-07T05:24:37;102127.67;;;22.17;44.70
77013;BME280;67260;53.130;17.982;2023-05-07T05:27:04;102130.71;;;22.51;43.91
77013;BME280;67260;53.130;17.982;2023-05-07T05:29:31;102131.90;;;22.92;42.19
77013;BME280;67260;53.130;17.982;2023-05-07T05:31:58;102129.39;;;23.17;41.97
77013;BME280;67260;53.130;17.982;2023-05-07T05:34:25;102132.56;;;23.61;40.52
77013;BME280;67260;53.130;17.982;2023-05-07T05:36:52;102137.30;;;23.93;38.65
77013;BME280;67260;53.130;17.982;2023-05-07T05:39:20;102133.02;;;24.21;39.10
77013;BME280;67260;53.130;17.982;2023-05-07T05:41:48;102129.04;;;24.81;37.97
77013;BME280;67260;53.130;17.982;2023-05-07T05:44:15;102126.20;;;25.53;36.26
77013;BME280;67260;53.130;17.982;2023-05-07T05:46:42;102131.48;;;25.80;35.67
77013;BME280;67260;53.130;17.982;2023-05-07T05:49:09;102134.13;;;26.12;33.76
77013;BME280;67260;53.130;17.982;2023-05-07T05:51:37;102129.70;;;26.13;33.53
77013;BME280;67260;53.130;17.982;2023-05-07T05:54:04;102131.70;;;26.43;33.55
77013;BME280;67260;53.130;17.982;2023-05-07T05:56:33;102134.31;;;26.90;32.13
77013;BME280;67260;53.130;17.982;2023-05-07T05:59:03;102134.06;;;27.26;31.48
77013;BME280;67260;53.130;17.982;2023-05-07T06:01:34;102134.89;;;27.66;30.98
77013;BME280;67260;53.130;17.982;2023-05-07T06:04:02;102142.98;;;28.09;29.27
77013;BME280;67260;53.130;17.982;2023-05-07T06:06:34;102138.88;;;28.35;29.12
77013;BME280;67260;53.130;17.982;2023-05-07T06:09:01;102142.86;;;28.79;28.09
77013;BME280;67260;53.130;17.982;2023-05-07T06:11:33;102136.84;;;28.99;27.10
77013;BME280;67260;53.130;17.982;2023-05-07T06:14:01;102136.41;;;29.25;26.79
77013;BME280;67260;53.130;17.982;2023-05-07T06:16:29;102135.36;;;29.48;25.85
77013;BME280;67260;53.130;17.982;2023-05-07T06:18:58;102131.94;;;29.75;25.55
77013;BME280;67260;53.130;17.982;2023-05-07T06:21:24;102135.17;;;29.95;24.89
77013;BME280;67260;53.130;17.982;2023-05-07T06:23:51;102137.06;;;30.11;24.71
77013;BME280;67260;53.130;17.982;2023-05-07T06:26:19;102140.30;;;30.30;24.37
77013;BME280;67260;53.130;17.982;2023-05-07T06:28:49;102141.89;;;30.43;22.98
77013;BME280;67260;53.130;17.982;2023-05-07T06:31:18;102142.00;;;30.43;23.00
77013;BME280;67260;53.130;17.982;2023-05-07T06:34:01;102142.91;;;30.44;22.36
77013;BME280;67260;53.130;17.982;2023-05-07T06:36:33;102150.74;;;30.63;21.99
77013;BME280;67260;53.130;17.982;2023-05-07T06:39:04;102146.51;;;30.84;21.57
77013;BME280;67260;53.130;17.982;2023-05-07T06:41:30;102144.34;;;30.95;21.57
77013;BME280;67260;53.130;17.982;2023-05-07T06:44:02;102145.46;;;31.40;21.09
77013;BME280;67260;53.130;17.982;2023-05-07T06:46:39;102145.61;;;31.67;20.47
77013;BME280;67260;53.130;17.982;2023-05-07T06:49:06;102148.40;;;32.35;20.20
77013;BME280;67260;53.130;17.982;2023-05-07T06:51:33;102149.28;;;32.78;19.50
77013;BME280;67260;53.130;17.982;2023-05-07T06:54:02;102149.36;;;33.14;19.27
77013;BME280;67260;53.130;17.982;2023-05-07T06:56:32;102147.52;;;33.53;18.92
77013;BME280;67260;53.130;17.982;2023-05-07T06:59:01;102152.91;;;33.77;18.44
77013;BME280;67260;53.130;17.982;2023-05-07T07:01:30;102151.92;;;33.85;17.95
77013;BME280;67260;53.130;17.982;2023-05-07T07:03:57;102156.11;;;33.55;17.70
77013;BME280;67260;53.130;17.982;2023-05-07T07:06:24;102160.09;;;33.41;17.98
77013;BME280;67260;53.130;17.982;2023-05-07T07:08:52;102167.80;;;33.48;17.93
77013;BME280;67260;53.130;17.982;2023-05-07T07:11:20;102168.24;;;33.53;17.44
77013;BME280;67260;53.130;17.982;2023-05-07T07:13:47;102166.48;;;33.56;17.64
77013;BME280;67260;53.130;17.982;2023-05-07T07:16:14;102165.98;;;33.80;17.04
77013;BME280;67260;53.130;17.982;2023-05-07T07:18:40;102162.58;;;34.08;16.77
77013;BME280;67260;53.130;17.982;2023-05-07T07:21:07;102163.41;;;33.96;16.14
77013;BME280;67260;53.130;17.982;2023-05-07T07:23:35;102159.42;;;33.87;16.82
77013;BME280;67260;53.130;17.982;2023-05-07T07:26:03;102165.59;;;34.08;16.50
77013;BME280;67260;53.130;17.982;2023-05-07T07:28:30;102166.27;;;34.49;16.03
77013;BME280;67260;53.130;17.982;2023-05-07T07:31:03;102164.37;;;34.45;14.92
77013;BME280;67260;53.130;17.982;2023-05-07T07:33:33;102166.33;;;34.05;15.18
77013;BME280;67260;53.130;17.982;2023-05-07T07:36:01;102169.68;;;33.81;15.09
77013;BME280;67260;53.130;17.982;2023-05-07T07:38:28;102170.55;;;33.75;14.99
77013;BME280;67260;53.130;17.982;2023-05-07T07:40:55;102172.14;;;33.84;15.00
77013;BME280;67260;53.130;17.982;2023-05-07T07:43:23;102173.29;;;33.57;14.75
77013;BME280;67260;53.130;17.982;2023-05-07T07:45:50;102172.48;;;33.42;15.25
77013;BME280;67260;53.130;17.982;2023-05-07T07:48:17;102173.02;;;33.90;15.32
77013;BME280;67260;53.130;17.982;2023-05-07T07:50:43;102172.27;;;34.27;14.97
77013;BME280;67260;53.130;17.982;2023-05-07T07:53:10;102172.11;;;34.31;14.63
77013;BME280;67260;53.130;17.982;2023-05-07T07:55:40;102167.41;;;34.24;14.21
77013;BME280;67260;53.130;17.982;2023-05-07T07:58:07;102171.34;;;34.07;14.34
77013;BME280;67260;53.130;17.982;2023-05-07T08:00:34;102173.20;;;34.12;14.44
77013;BME280;67260;53.130;17.982;2023-05-07T08:03:01;102176.83;;;34.52;13.52
77013;BME280;67260;53.130;17.982;2023-05-07T08:05:31;102174.42;;;34.58;13.03
77013;BME280;67260;53.130;17.982;2023-05-07T08:07:58;102174.48;;;34.07;13.32
77013;BME280;67260;53.130;17.982;2023-05-07T08:10:28;102173.92;;;33.87;13.61
77013;BME280;67260;53.130;17.982;2023-05-07T08:12:59;102182.98;;;33.55;13.20
77013;BME280;67260;53.130;17.982;2023-05-07T08:15:26;102178.48;;;33.42;13.74
77013;BME280;67260;53.130;17.982;2023-05-07T08:17:53;102180.40;;;33.31;13.50
77013;BME280;67260;53.130;17.982;2023-05-07T08:20:20;102185.55;;;33.16;13.49
77013;BME280;67260;53.130;17.982;2023-05-07T08:22:47;102187.95;;;32.85;13.46
77013;BME280;67260;53.130;17.982;2023-05-07T08:25:14;102181.42;;;32.63;13.66
77013;BME280;67260;53.130;17.982;2023-05-07T08:27:42;102179.27;;;32.69;13.62
77013;BME280;67260;53.130;17.982;2023-05-07T08:30:12;102180.14;;;32.94;13.80
77013;BME280;67260;53.130;17.982;2023-05-07T08:32:39;102187.05;;;33.21;13.24
77013;BME280;67260;53.130;17.982;2023-05-07T08:35:06;102180.68;;;33.37;13.11
77013;BME280;67260;53.130;17.982;2023-05-07T08:37:34;102181.01;;;33.40;12.88
77013;BME280;67260;53.130;17.982;2023-05-07T08:40:02;102183.31;;;33.34;12.88
77013;BME280;67260;53.130;17.982;2023-05-07T08:42:37;102188.92;;;32.95;12.95
77013;BME280;67260;53.130;17.982;2023-05-07T08:45:09;102195.77;;;33.10;12.67
77013;BME280;67260;53.130;17.982;2023-05-07T08:47:44;102194.46;;;32.79;12.45
77013;BME280;67260;53.130;17.982;2023-05-07T08:50:13;102188.10;;;32.89;12.67
77013;BME280;67260;53.130;17.982;2023-05-07T08:52:41;102187.59;;;33.31;12.83
77013;BME280;67260;53.130;17.982;2023-05-07T08:55:09;102188.42;;;33.41;12.44
77013;BME280;67260;53.130;17.982;2023-05-07T08:57:38;102192.23;;;33.74;12.60
77013;BME280;67260;53.130;17.982;2023-05-07T09:00:06;102189.33;;;33.88;12.53
77013;BME280;67260;53.130;17.982;2023-05-07T09:02:35;102193.23;;;33.95;12.41
77013;BME280;67260;53.130;17.982;2023-05-07T09:05:04;102191.98;;;34.00;12.66
77013;BME280;67260;53.130;17.982;2023-05-07T09:07:31;102193.52;;;34.19;12.40
77013;BME280;67260;53.130;17.982;2023-05-07T09:10:02;102194.88;;;34.12;12.29
77013;BME280;67260;53.130;17.982;2023-05-07T09:12:29;102197.13;;;33.42;12.38
77013;BME280;67260;53.130;17.982;2023-05-07T09:15:02;102194.99;;;32.87;12.86
77013;BME280;67260;53.130;17.982;2023-05-07T09:17:29;102194.36;;;32.58;13.34
77013;BME280;67260;53.130;17.982;2023-05-07T09:19:56;102197.88;;;32.55;13.53
77013;BME280;67260;53.130;17.982;2023-05-07T09:22:31;102196.50;;;32.58;13.36
77013;BME280;67260;53.130;17.982;2023-05-07T09:25:05;102193.25;;;32.23;13.13
77013;BME280;67260;53.130;17.982;2023-05-07T09:27:33;102191.42;;;31.93;13.53
77013;BME280;67260;53.130;17.982;2023-05-07T09:30:06;102186.25;;;31.75;13.67
77013;BME280;67260;53.130;17.982;2023-05-07T09:32:38;102184.42;;;31.71;13.79
77013;BME280;67260;53.130;17.982;2023-05-07T09:35:15;102191.80;;;31.85;13.78
77013;BME280;67260;53.130;17.982;2023-05-07T09:37:43;102193.03;;;31.74;13.96
77013;BME280;67260;53.130;17.982;2023-05-07T09:40:24;102192.65;;;31.64;13.78
77013;BME280;67260;53.130;17.982;2023-05-07T09:42:51;102186.98;;;31.71;13.71
77013;BME280;67260;53.130;17.982;2023-05-07T09:45:25;102193.27;;;30.69;14.50
77013;BME280;67260;53.130;17.982;2023-05-07T09:47:57;102193.41;;;30.72;14.77
77013;BME280;67260;53.130;17.982;2023-05-07T09:50:27;102191.59;;;31.17;14.35
77013;BME280;67260;53.130;17.982;2023-05-07T09:52:56;102195.52;;;31.28;14.45
77013;BME280;67260;53.130;17.982;2023-05-07T09:55:23;102195.58;;;31.48;14.44
77013;BME280;67260;53.130;17.982;2023-05-07T09:57:52;102200.74;;;31.57;14.18
77013;BME280;67260;53.130;17.982;2023-05-07T10:00:20;102204.59;;;31.80;14.37
77013;BME280;67260;53.130;17.982;2023-05-07T10:02:57;102207.63;;;31.81;14.37
77013;BME280;67260;53.130;17.982;2023-05-07T10:05:34;102211.88;;;32.12;14.13
77013;BME280;67260;53.130;17.982;2023-05-07T10:08:02;102212.23;;;32.23;14.09
77013;BME280;67260;53.130;17.982;2023-05-07T10:10:32;102218.08;;;32.11;14.15
77013;BME280;67260;53.130;17.982;2023-05-07T10:13:01;102210.48;;;32.00;14.43
77013;BME280;67260;53.130;17.982;2023-05-07T10:15:34;102212.64;;;32.23;14.46
77013;BME280;67260;53.130;17.982;2023-05-07T10:18:03;102209.95;;;32.02;14.38
77013;BME280;67260;53.130;17.982;2023-05-07T10:20:31;102208.98;;;31.82;14.37
77013;BME280;67260;53.130;17.982;2023-05-07T10:22:59;102211.83;;;31.55;14.56
77013;BME280;67260;53.130;17.982;2023-05-07T10:25:34;102214.66;;;31.00;14.52
77013;BME280;67260;53.130;17.982;2023-05-07T10:28:08;102218.38;;;30.59;14.89
77013;BME280;67260;53.130;17.982;2023-05-07T10:30:48;102218.30;;;30.40;14.96
77013;BME280;67260;53.130;17.982;2023-05-07T10:33:26;102218.38;;;29.54;15.75
77013;BME280;67260;53.130;17.982;2023-05-07T10:36:02;102216.07;;;27.55;16.76
77013;BME280;67260;53.130;17.982;2023-05-07T10:38:32;102220.94;;;27.72;17.24
77013;BME280;67260;53.130;17.982;2023-05-07T10:41:01;102223.92;;;27.94;17.23
77013;BME280;67260;53.130;17.982;2023-05-07T10:43:43;102219.75;;;27.95;17.21
77013;BME280;67260;53.130;17.982;2023-05-07T10:46:18;102211.66;;;28.10;17.24
77013;BME280;67260;53.130;17.982;2023-05-07T10:51:36;102208.30;;;27.93;17.49
77013;BME280;67260;53.130;17.982;2023-05-07T10:56:40;102208.00;;;27.38;18.20
77013;BME280;67260;53.130;17.982;2023-05-07T11:01:56;102208.39;;;28.33;17.64
77013;BME280;67260;53.130;17.982;2023-05-07T11:04:37;102214.15;;;28.41;17.40
77013;BME280;67260;53.130;17.982;2023-05-07T11:07:29;102214.27;;;27.84;17.60
77013;BME280;67260;53.130;17.982;2023-05-07T11:10:19;102223.34;;;27.29;18.13
77013;BME280;67260;53.130;17.982;2023-05-07T11:12:58;102223.20;;;27.00;18.55
77013;BME280;67260;53.130;17.982;2023-05-07T11:15:47;102221.80;;;26.91;18.54
77013;BME280;67260;53.130;17.982;2023-05-07T11:18:48;102219.00;;;26.95;18.87
77013;BME280;67260;53.130;17.982;2023-05-07T11:21:36;102222.13;;;27.03;18.71
77013;BME280;67260;53.130;17.982;2023-05-07T11:24:12;102221.44;;;26.37;19.29
77013;BME280;67260;53.130;17.982;2023-05-07T11:27:05;102217.53;;;26.47;19.31
77013;BME280;67260;53.130;17.982;2023-05-07T11:29:32;102223.38;;;25.23;20.20
77013;BME280;67260;53.130;17.982;2023-05-07T11:32:04;102225.73;;;23.65;21.20
77013;BME280;67260;53.130;17.982;2023-05-07T11:34:38;102220.83;;;23.28;22.00
77013;BME280;67260;53.130;17.982;2023-05-07T11:37:06;102220.91;;;23.65;21.80
77013;BME280;67260;53.130;17.982;2023-05-07T11:40:07;102222.88;;;23.88;21.54
77013;BME280;67260;53.130;17.982;2023-05-07T11:42:39;102222.21;;;23.84;21.35
77013;BME280;67260;53.130;17.982;2023-05-07T11:45:07;102224.34;;;23.53;21.45
77013;BME280;67260;53.130;17.982;2023-05-07T11:47:36;102219.83;;;22.06;22.62
77013;BME280;67260;53.130;17.982;2023-05-07T11:50:07;102224.55;;;20.94;23.58
77013;BME280;67260;53.130;17.982;2023-05-07T11:52:34;102229.77;;;20.50;24.68
77013;BME280;67260;53.130;17.982;2023-05-07T11:55:03;102229.50;;;21.09;24.61
77013;BME280;67260;53.130;17.982;2023-05-07T11:57:33;102234.77;;;21.74;24.11
77013;BME280;67260;53.130;17.982;2023-05-07T12:00:00;102234.30;;;22.12;23.77
77013;BME280;67260;53.130;17.982;2023-05-07T12:02:39;102228.91;;;22.35;24.09
77013;BME280;67260;53.130;17.982;2023-05-07T12:05:06;102238.63;;;21.63;24.65
77013;BME280;67260;53.130;17.982;2023-05-07T12:07:34;102244.23;;;20.79;25.52
77013;BME280;67260;53.130;17.982;2023-05-07T12:10:07;102242.89;;;20.62;25.59
77013;BME280;67260;53.130;17.982;2023-05-07T12:12:46;102242.80;;;21.12;25.68
77013;BME280;67260;53.130;17.982;2023-05-07T12:15:17;102239.21;;;20.98;25.44
77013;BME280;67260;53.130;17.982;2023-05-07T12:17:43;102242.77;;;20.32;26.27
77013;BME280;67260;53.130;17.982;2023-05-07T12:20:11;102245.60;;;19.49;26.54
77013;BME280;67260;53.130;17.982;2023-05-07T12:22:38;102242.53;;;19.18;27.03
77013;BME280;67260;53.130;17.982;2023-05-07T12:25:05;102240.42;;;19.40;26.44
77013;BME280;67260;53.130;17.982;2023-05-07T12:27:37;102236.15;;;19.60;26.14
77013;BME280;67260;53.130;17.982;2023-05-07T12:30:06;102228.20;;;19.20;26.35
77013;BME280;67260;53.130;17.982;2023-05-07T12:32:36;102236.11;;;18.61;27.78
77013;BME280;67260;53.130;17.982;2023-05-07T12:35:05;102239.34;;;18.20;28.04
77013;BME280;67260;53.130;17.982;2023-05-07T12:37:45;102237.39;;;18.14;27.74
77013;BME280;67260;53.130;17.982;2023-05-07T12:40:22;102241.49;;;18.20;27.83
77013;BME280;67260;53.130;17.982;2023-05-07T12:42:53;102232.37;;;18.31;27.68
77013;BME280;67260;53.130;17.982;2023-05-07T12:45:21;102242.20;;;18.37;27.75
77013;BME280;67260;53.130;17.982;2023-05-07T12:47:48;102238.73;;;18.23;28.25
77013;BME280;67260;53.130;17.982;2023-05-07T12:50:15;102240.08;;;18.06;28.74
77013;BME280;67260;53.130;17.982;2023-05-07T12:52:43;102248.16;;;17.74;28.85
77013;BME280;67260;53.130;17.982;2023-05-07T12:55:14;102240.77;;;17.51;29.01
77013;BME280;67260;53.130;17.982;2023-05-07T12:57:45;102243.86;;;17.38;29.33
77013;BME280;67260;53.130;17.982;2023-05-07T13:00:16;102242.75;;;17.37;29.18
77013;BME280;67260;53.130;17.982;2023-05-07T13:02:45;102244.92;;;17.24;29.42